Startpagina
METAR-TAF:

METAR-TAF

Vliegvelden :

Militair vliegvled

Morón de la Frontera, Spanje

breedte: 37-09N, lengte: 005-37W, hoogte: 87 m

Actueel weer

Dit bericht is 58 minuten geleden gemaakt, om 02:00 UTC
Weinig wind
Temperatuur 3°C
Vochtigheid 93%
Druk 1028 hPa
Zicht 10 km of meer
geen wolken onder 1500 m en geen cumulonimbus

METAR: LEMO 120200Z 00000KT CAVOK 03/02 Q1028 NOSIG

Tijdstip: 03:58 (02:58 UTC)

Verwachting

Dit bericht is 58 minuten geleden gemaakt, om 02:00 UTC
Verwachting geldig van 12 om 03 UTC tot 12 om 12 UTC
Wind 3 kt uit variabele richting
Zicht 10 km of meer
geen wolken onder 1500 m en geen cumulonimbus

TAF: LEMO 120200Z 1203/1212 VRB03KT CAVOK

Waarnemingen en weersverwachtingen van meer dan 4000 vliegvelden (METAR en TAF).

De beschikbare stations zijn de gele en rode punten op de kaart.

Ga met uw muis naar het station om de naam te zien.

Klik dan om waarnemingen en weersverwachtingen te zien.

kaart wijzigen: klik op de groene knoppen met een zwart kruis om in te zoomen, op de groene knop met een streepje om uit te zoomen of op de groene pijlen voor aangrenzende kaarten.


METAR-TAF: